createdAt,value
2022-09-05T00:00:01.017Z,51.6
2022-09-05T00:05:00.243Z,66.9
2022-09-05T00:10:00.587Z,69.5
2022-09-05T00:15:19.427Z,63.8
2022-09-05T00:24:17.865Z,69.9
2022-09-05T00:25:31.998Z,70.0
2022-09-05T00:30:32.099Z,63.4
2022-09-05T00:35:00.261Z,66.0
2022-09-05T00:40:19.430Z,65.0
2022-09-05T00:45:00.308Z,64.2
2022-09-05T00:50:00.463Z,65.9
2022-09-05T00:55:00.260Z,55.8
2022-09-05T01:00:00.435Z,68.1
2022-09-05T01:05:00.270Z,65.0
2022-09-05T01:10:00.499Z,62.4
2022-09-05T01:15:00.264Z,54.7
2022-09-05T01:20:20.691Z,46.1
2022-09-05T01:25:00.281Z,46.7
2022-09-05T01:30:00.440Z,51.0
2022-09-05T01:35:00.463Z,55.0
2022-09-05T01:40:17.267Z,55.2
2022-09-05T01:45:00.270Z,47.1
2022-09-05T01:50:01.661Z,41.8
2022-09-05T01:55:00.449Z,44.0
2022-09-05T02:00:00.496Z,42.3
2022-09-05T02:05:00.241Z,45.5
2022-09-05T02:10:08.010Z,28.9
2022-09-05T02:15:00.252Z,42.8
2022-09-05T02:20:00.423Z,28.7
2022-09-05T02:25:33.516Z,22.5
2022-09-05T02:30:00.451Z,4.5
2022-09-05T02:35:00.247Z,0.0
2022-09-05T02:44:45.503Z,359.0
2022-09-05T02:45:27.673Z,354.4
2022-09-05T02:52:39.447Z,360.0
2022-09-05T02:57:30.841Z,358.7
2022-09-05T03:00:00.449Z,360.0
2022-09-05T03:05:05.518Z,359.6
2022-09-05T03:10:00.388Z,340.6
2022-09-05T03:15:00.260Z,359.4
2022-09-05T03:20:00.388Z,360.0
2022-09-05T03:25:00.272Z,0.0
2022-09-05T03:30:00.518Z,0.0
2022-09-05T03:35:00.238Z,0.4
2022-09-05T03:40:17.057Z,0.2
2022-09-05T03:45:00.254Z,17.9
2022-09-05T03:52:10.511Z,30.2
2022-09-05T03:57:21.936Z,31.3
2022-09-05T04:00:00.434Z,34.1
2022-09-05T04:08:12.891Z,44.5
2022-09-05T04:10:00.892Z,22.8
2022-09-05T04:15:00.302Z,1.8
2022-09-05T04:20:00.412Z,338.3
2022-09-05T04:25:00.271Z,8.1
2022-09-05T04:30:00.415Z,2.7
2022-09-05T04:35:00.253Z,343.7
2022-09-05T04:40:00.752Z,337.5
2022-09-05T04:45:00.254Z,344.3
2022-09-05T04:50:00.891Z,356.7
2022-09-05T04:55:00.302Z,344.6
2022-09-05T05:01:04.541Z,337.5
2022-09-05T05:06:06.520Z,342.8
2022-09-05T05:11:18.581Z,352.1
2022-09-05T05:17:54.708Z,0.4
2022-09-05T05:20:41.006Z,34.1
2022-09-05T05:25:00.249Z,32.7
2022-09-05T05:30:00.393Z,45.2
2022-09-05T05:35:00.243Z,46.9
2022-09-05T05:40:00.774Z,53.8
2022-09-05T05:45:00.254Z,53.6
2022-09-05T05:50:00.404Z,70.8
2022-09-05T05:55:51.112Z,60.7
2022-09-05T06:00:01.067Z,82.0
2022-09-05T06:05:04.517Z,65.2
2022-09-05T06:12:03.234Z,55.2
2022-09-05T06:15:22.228Z,58.5
2022-09-05T06:21:30.963Z,70.6
2022-09-05T06:25:17.763Z,57.4
2022-09-05T06:30:00.358Z,70.7
2022-09-05T06:35:00.524Z,72.0
2022-09-05T06:40:00.995Z,75.1
2022-09-05T06:45:20.204Z,43.8
2022-09-05T06:50:28.186Z,60.1
2022-09-05T06:55:00.541Z,71.6
2022-09-05T07:00:00.468Z,56.5
2022-09-05T07:05:38.089Z,71.6
2022-09-05T07:10:00.534Z,57.8
2022-09-05T07:15:09.586Z,65.7
2022-09-05T07:20:00.453Z,75.8
2022-09-05T07:25:00.364Z,77.5
2022-09-05T07:30:02.407Z,71.6
2022-09-05T07:35:00.248Z,82.1
2022-09-05T07:40:26.914Z,68.6
2022-09-05T07:45:00.299Z,63.8
2022-09-05T07:51:59.190Z,67.5
2022-09-05T07:56:57.868Z,65.0
2022-09-05T08:00:00.499Z,84.3
2022-09-05T08:05:00.602Z,113.3
2022-09-05T08:10:16.018Z,61.9
2022-09-05T08:15:00.307Z,87.2
2022-09-05T08:20:09.546Z,70.7
2022-09-05T08:25:00.280Z,155.9
2022-09-05T08:30:28.034Z,77.1
2022-09-05T08:35:00.281Z,133.4
2022-09-05T08:40:12.663Z,75.2
2022-09-05T08:46:38.124Z,98.8
2022-09-05T08:50:00.394Z,90.5
2022-09-05T08:55:08.530Z,122.2
2022-09-05T09:00:27.555Z,76.8
2022-09-05T09:05:03.432Z,105.8
2022-09-05T09:10:00.408Z,68.9
2022-09-05T09:15:00.294Z,155.7
2022-09-05T09:20:00.415Z,69.7
2022-09-05T09:25:19.259Z,99.3
2022-09-05T09:30:00.477Z,92.9
2022-09-05T09:35:06.486Z,138.7
2022-09-05T09:40:00.718Z,87.8
2022-09-05T09:45:29.470Z,86.6
2022-09-05T09:50:00.417Z,110.2
2022-09-05T09:55:00.546Z,93.3
2022-09-05T10:00:00.434Z,92.5
2022-09-05T10:09:52.534Z,139.1
2022-09-05T10:10:41.028Z,93.0
2022-09-05T10:15:31.824Z,129.6
2022-09-05T10:20:12.294Z,128.6
2022-09-05T10:25:20.178Z,87.7
2022-09-05T10:30:00.461Z,100.4
2022-09-05T10:35:24.379Z,78.8
2022-09-05T10:40:00.715Z,76.9
2022-09-05T10:45:00.330Z,161.1
2022-09-05T10:50:00.483Z,89.2
2022-09-05T10:55:16.247Z,71.0
2022-09-05T11:00:45.837Z,83.9
2022-09-05T11:05:00.573Z,107.5
2022-09-05T11:10:00.431Z,146.6
2022-09-05T11:15:00.433Z,60.3
2022-09-05T11:20:00.454Z,72.3
2022-09-05T11:25:00.325Z,97.7
2022-09-05T11:30:00.494Z,94.4
2022-09-05T11:39:49.507Z,65.9
2022-09-05T11:40:41.837Z,56.3
2022-09-05T11:45:00.303Z,93.9
2022-09-05T11:50:00.401Z,70.6
2022-09-05T11:55:00.288Z,69.5
2022-09-05T12:00:32.262Z,76.8
2022-09-05T12:05:48.141Z,116.5
2022-09-05T12:10:00.387Z,83.2
2022-09-05T12:15:11.560Z,80.2
2022-09-05T12:20:00.515Z,68.8
2022-09-05T12:27:37.775Z,98.7
2022-09-05T12:30:02.184Z,99.0
2022-09-05T12:36:03.473Z,67.4
2022-09-05T12:40:58.639Z,112.7
2022-09-05T12:45:02.919Z,66.1
2022-09-05T12:50:15.913Z,70.0
2022-09-05T12:55:00.375Z,69.1
2022-09-05T13:03:00.742Z,74.1
2022-09-05T13:05:03.341Z,68.9
2022-09-05T13:11:30.184Z,103.8
2022-09-05T13:15:24.222Z,73.2
2022-09-05T13:20:00.341Z,60.0
2022-09-05T13:25:00.441Z,62.4
2022-09-05T13:31:13.781Z,65.6
2022-09-05T13:38:09.414Z,97.1
2022-09-05T13:40:01.428Z,154.9
2022-09-05T13:45:00.219Z,77.6
2022-09-05T13:50:05.874Z,69.4
2022-09-05T13:55:00.957Z,85.2
2022-09-05T14:00:00.407Z,50.4
2022-09-05T14:05:21.149Z,63.2
2022-09-05T14:10:00.509Z,71.5
2022-09-05T14:15:14.263Z,132.7
2022-09-05T14:20:00.375Z,156.5
2022-09-05T14:25:00.631Z,131.0
2022-09-05T14:30:54.130Z,133.5
2022-09-05T14:37:57.808Z,124.8
2022-09-05T14:40:29.412Z,75.4
2022-09-05T14:45:00.227Z,70.4
2022-09-05T14:50:04.132Z,81.7
2022-09-05T14:55:21.246Z,66.9
2022-09-05T15:02:46.882Z,66.2
2022-09-05T15:05:12.280Z,67.2
2022-09-05T15:12:19.370Z,76.7
2022-09-05T15:15:00.239Z,64.7
2022-09-05T15:20:07.884Z,73.8
2022-09-05T15:25:18.678Z,76.7
2022-09-05T15:30:00.621Z,60.6
2022-09-05T15:35:00.262Z,63.8
2022-09-05T15:40:01.090Z,110.0
2022-09-05T15:45:11.298Z,74.3
2022-09-05T15:50:00.432Z,73.1
2022-09-05T15:55:00.239Z,70.0
2022-09-05T16:00:00.401Z,69.4
2022-09-05T16:08:56.857Z,77.3
2022-09-05T16:10:55.292Z,82.1
2022-09-05T16:16:14.372Z,56.4
2022-09-05T16:23:21.283Z,75.3
2022-09-05T16:25:01.317Z,70.7
2022-09-05T16:30:00.411Z,91.1
2022-09-05T16:35:00.252Z,115.1
2022-09-05T16:40:00.759Z,77.8
2022-09-05T16:45:00.254Z,96.3
2022-09-05T16:50:00.406Z,114.1
2022-09-05T16:55:00.218Z,82.8
2022-09-05T17:00:00.444Z,98.0
2022-09-05T17:05:06.438Z,78.6
2022-09-05T17:10:00.410Z,71.1
2022-09-05T17:15:00.240Z,62.6
2022-09-05T17:20:08.183Z,62.8
2022-09-05T17:29:21.619Z,66.7
2022-09-05T17:35:18.710Z,69.5
2022-09-05T17:40:00.697Z,72.6
2022-09-05T17:45:00.240Z,65.2
2022-09-05T17:50:00.425Z,62.7
2022-09-05T17:55:00.259Z,66.4
2022-09-05T18:00:12.707Z,63.7
2022-09-05T18:05:00.219Z,82.7
2022-09-05T18:10:27.317Z,69.1
2022-09-05T18:15:07.870Z,66.9
2022-09-05T18:20:06.989Z,64.9
2022-09-05T18:25:33.314Z,63.2
2022-09-05T18:30:00.368Z,61.5
2022-09-05T18:35:00.234Z,67.2
2022-09-05T18:40:06.803Z,69.3
2022-09-05T18:45:00.264Z,73.3
2022-09-05T18:50:28.272Z,67.2
2022-09-05T18:56:11.900Z,64.0
2022-09-05T19:00:00.412Z,65.0
2022-09-05T19:05:16.182Z,69.3
2022-09-05T19:10:34.132Z,62.9
2022-09-05T19:15:08.826Z,66.2
2022-09-05T19:20:32.313Z,59.0
2022-09-05T19:25:00.249Z,69.6
2022-09-05T19:36:47.705Z,62.2
2022-09-05T19:37:00.750Z,61.6
2022-09-05T19:44:04.654Z,62.8
2022-09-05T19:47:32.015Z,50.3
2022-09-05T19:50:00.363Z,54.4
2022-09-05T19:55:00.230Z,52.5
2022-09-05T20:00:00.433Z,59.9
2022-09-05T20:05:00.240Z,59.4
2022-09-05T20:10:00.393Z,46.9
2022-09-05T20:15:00.247Z,51.0
2022-09-05T20:20:00.380Z,47.2
2022-09-05T20:25:00.285Z,54.5
2022-09-05T20:30:00.568Z,56.9
2022-09-05T20:36:26.610Z,44.0
2022-09-05T20:43:13.418Z,52.4
2022-09-05T20:45:00.261Z,49.1
2022-09-05T20:54:12.043Z,65.5
2022-09-05T20:55:38.038Z,59.4
2022-09-05T21:00:00.367Z,61.1
2022-09-05T21:05:21.759Z,64.2
2022-09-05T21:10:00.377Z,65.4
2022-09-05T21:15:00.243Z,53.8
2022-09-05T21:20:00.422Z,62.0
2022-09-05T21:25:00.228Z,64.3
2022-09-05T21:30:00.403Z,62.0
2022-09-05T21:35:00.252Z,71.6
2022-09-05T21:40:01.636Z,67.1
2022-09-05T21:47:37.291Z,70.1
2022-09-05T21:50:00.381Z,68.6
2022-09-05T21:59:23.709Z,62.3
2022-09-05T22:00:11.665Z,61.2
2022-09-05T22:05:03.853Z,63.3
2022-09-05T22:10:00.442Z,63.2
2022-09-05T22:15:32.858Z,66.2
2022-09-05T22:20:00.390Z,61.4
2022-09-05T22:25:00.319Z,65.9
2022-09-05T22:30:00.438Z,55.1
2022-09-05T22:35:29.025Z,60.5
2022-09-05T22:40:00.546Z,59.0
2022-09-05T22:45:00.239Z,51.5
2022-09-05T22:50:00.359Z,52.8
2022-09-05T22:55:00.359Z,58.2
2022-09-05T23:00:00.375Z,57.7
2022-09-05T23:05:00.241Z,53.2
2022-09-05T23:10:00.435Z,56.6
2022-09-05T23:15:00.234Z,63.8
2022-09-05T23:20:00.366Z,59.7
2022-09-05T23:25:00.234Z,62.0
2022-09-05T23:30:00.891Z,48.7
2022-09-05T23:35:00.252Z,62.2
2022-09-05T23:40:00.865Z,63.0
2022-09-05T23:45:00.414Z,62.4
2022-09-05T23:50:00.398Z,61.2
2022-09-05T23:55:00.266Z,56.6
